createdAt,value
2023-02-26T00:00:16.935Z,8.49
2023-02-26T00:02:47.992Z,8.48
2023-02-26T00:05:18.287Z,8.46
2023-02-26T00:07:46.879Z,8.45
2023-02-26T00:10:16.796Z,8.46
2023-02-26T00:12:46.856Z,8.44
2023-02-26T00:15:18.415Z,8.42
2023-02-26T00:17:56.947Z,8.42
2023-02-26T00:20:28.409Z,8.42
2023-02-26T00:22:57.538Z,8.39
2023-02-26T00:25:26.293Z,8.35
2023-02-26T00:27:55.704Z,8.33
2023-02-26T00:30:25.181Z,8.32
2023-02-26T00:32:54.730Z,8.29
2023-02-26T00:35:24.271Z,8.28
2023-02-26T00:38:03.821Z,8.26
2023-02-26T00:40:46.800Z,8.21
2023-02-26T00:43:19.379Z,8.19
2023-02-26T00:46:04.248Z,8.17
2023-02-26T00:48:48.188Z,8.15
2023-02-26T00:51:23.150Z,8.12
2023-02-26T00:54:04.868Z,8.08
2023-02-26T00:56:33.570Z,8.06
2023-02-26T00:59:02.159Z,8.05
2023-02-26T01:01:30.645Z,8.06
2023-02-26T01:03:59.974Z,8.07
2023-02-26T01:06:33.871Z,8.06
2023-02-26T01:09:11.941Z,8.06
2023-02-26T01:11:41.052Z,8.05
2023-02-26T01:14:10.201Z,8.05
2023-02-26T01:16:50.180Z,8.02
2023-02-26T01:19:30.963Z,8.00
2023-02-26T01:22:10.238Z,7.97
2023-02-26T01:24:40.440Z,7.97
2023-02-26T01:27:09.540Z,7.97
2023-02-26T01:29:38.312Z,7.97
2023-02-26T01:32:15.048Z,7.95
2023-02-26T01:34:51.943Z,7.92
2023-02-26T01:37:29.711Z,7.90
2023-02-26T01:40:46.613Z,7.85
2023-02-26T01:43:21.102Z,7.81
2023-02-26T01:46:03.200Z,7.78
2023-02-26T01:48:45.651Z,7.75
2023-02-26T01:51:14.089Z,7.71
2023-02-26T01:53:42.504Z,7.69
2023-02-26T01:56:17.834Z,7.69
2023-02-26T01:58:50.823Z,7.68
2023-02-26T02:01:19.233Z,7.69
2023-02-26T02:03:47.963Z,7.68
2023-02-26T02:06:23.807Z,7.68
2023-02-26T02:08:53.364Z,7.69
2023-02-26T02:11:23.532Z,7.67
2023-02-26T02:14:13.948Z,7.64
2023-02-26T02:16:49.735Z,7.63
2023-02-26T02:19:56.228Z,7.61
2023-02-26T02:22:50.614Z,7.58
2023-02-26T02:25:43.540Z,7.56
2023-02-26T02:28:31.650Z,7.53
2023-02-26T02:31:09.218Z,7.53
2023-02-26T02:33:50.169Z,7.54
2023-02-26T02:36:32.624Z,7.54
2023-02-26T02:39:07.610Z,7.54
2023-02-26T02:41:40.246Z,7.53
2023-02-26T02:44:16.053Z,7.52
2023-02-26T02:46:50.137Z,7.52
2023-02-26T02:49:26.610Z,7.53
2023-02-26T02:52:01.454Z,7.55
2023-02-26T02:54:39.332Z,7.56
2023-02-26T02:57:14.772Z,7.59
2023-02-26T02:59:46.967Z,7.59
2023-02-26T03:02:23.429Z,7.62
2023-02-26T03:04:52.180Z,7.62
2023-02-26T03:07:20.861Z,7.62
2023-02-26T03:09:49.358Z,7.60
2023-02-26T03:12:17.955Z,7.59
2023-02-26T03:14:46.463Z,7.58
2023-02-26T03:17:27.394Z,7.57
2023-02-26T03:20:20.277Z,7.53
2023-02-26T03:23:02.452Z,7.54
2023-02-26T03:25:39.395Z,7.53
2023-02-26T03:28:19.780Z,7.54
2023-02-26T03:30:54.053Z,7.56
2023-02-26T03:33:31.277Z,7.58
2023-02-26T03:36:07.828Z,7.60
2023-02-26T03:38:43.285Z,7.62
2023-02-26T03:41:17.276Z,7.63
2023-02-26T03:43:51.475Z,7.62
2023-02-26T03:46:31.975Z,7.63
2023-02-26T03:49:07.339Z,7.67
2023-02-26T03:51:38.414Z,7.69
2023-02-26T03:54:12.235Z,7.70
2023-02-26T03:56:45.346Z,7.72
2023-02-26T03:59:14.127Z,7.70
2023-02-26T04:01:48.978Z,7.69
2023-02-26T04:04:25.600Z,7.68
2023-02-26T04:06:55.253Z,7.70
2023-02-26T04:09:24.498Z,7.70
2023-02-26T04:11:55.098Z,7.72
2023-02-26T04:14:23.572Z,7.72
2023-02-26T04:16:52.021Z,7.73
2023-02-26T04:19:21.829Z,7.74
2023-02-26T04:21:50.236Z,7.74
2023-02-26T04:24:18.681Z,7.74
2023-02-26T04:26:47.086Z,7.73
2023-02-26T04:29:15.586Z,7.72
2023-02-26T04:31:44.129Z,7.73
2023-02-26T04:34:12.599Z,7.70
2023-02-26T04:36:42.519Z,7.70
2023-02-26T04:39:11.147Z,7.70
2023-02-26T04:41:40.373Z,7.68
2023-02-26T04:44:08.813Z,7.68
2023-02-26T04:46:37.309Z,7.68
2023-02-26T04:49:05.987Z,7.68
2023-02-26T04:51:34.434Z,7.66
2023-02-26T04:54:04.337Z,7.63
2023-02-26T04:56:33.592Z,7.60
2023-02-26T04:59:02.063Z,7.56
2023-02-26T05:01:32.353Z,7.53
2023-02-26T05:04:01.369Z,7.51
2023-02-26T05:06:30.051Z,7.50
2023-02-26T05:08:58.458Z,7.48
2023-02-26T05:11:28.334Z,7.46
2023-02-26T05:13:57.567Z,7.46
2023-02-26T05:16:26.668Z,7.42
2023-02-26T05:18:55.377Z,7.37
2023-02-26T05:21:26.134Z,7.36
2023-02-26T05:23:54.796Z,7.33
2023-02-26T05:26:23.290Z,7.32
2023-02-26T05:28:53.292Z,7.31
2023-02-26T05:31:21.902Z,7.31
2023-02-26T05:33:50.340Z,7.29
2023-02-26T05:36:18.812Z,7.23
2023-02-26T05:38:47.184Z,7.17
2023-02-26T05:41:15.660Z,7.08
2023-02-26T05:43:44.146Z,7.00
2023-02-26T05:46:14.146Z,6.95
2023-02-26T05:48:44.751Z,6.92
2023-02-26T05:51:14.208Z,6.88
2023-02-26T05:53:42.628Z,6.87
2023-02-26T05:56:11.028Z,6.84
2023-02-26T05:58:39.540Z,6.83
2023-02-26T06:01:08.065Z,6.79
2023-02-26T06:03:40.334Z,6.77
2023-02-26T06:06:09.504Z,6.76
2023-02-26T06:08:38.502Z,6.74
2023-02-26T06:11:07.266Z,6.74
2023-02-26T06:13:35.674Z,6.75
2023-02-26T06:16:05.018Z,6.75
2023-02-26T06:18:33.811Z,6.75
2023-02-26T06:21:03.842Z,6.74
2023-02-26T06:23:32.316Z,6.74
2023-02-26T06:26:00.979Z,6.73
2023-02-26T06:28:29.483Z,6.74
2023-02-26T06:30:58.056Z,6.75
2023-02-26T06:33:26.821Z,6.78
2023-02-26T06:35:56.114Z,6.81
2023-02-26T06:38:25.910Z,6.84
2023-02-26T06:40:54.352Z,6.82
2023-02-26T06:43:23.458Z,6.84
2023-02-26T06:45:52.132Z,6.86
2023-02-26T06:48:20.698Z,6.89
2023-02-26T06:50:49.572Z,6.90
2023-02-26T06:53:18.217Z,6.95
2023-02-26T06:55:52.084Z,6.98
2023-02-26T06:58:21.522Z,6.99
2023-02-26T07:00:50.056Z,7.03
2023-02-26T07:03:19.974Z,7.08
2023-02-26T07:05:48.582Z,7.12
2023-02-26T07:08:17.478Z,7.15
2023-02-26T07:10:49.378Z,7.17
2023-02-26T07:13:18.264Z,7.21
2023-02-26T07:15:46.697Z,7.27
2023-02-26T07:18:15.081Z,7.35
2023-02-26T07:20:45.146Z,7.42
2023-02-26T07:23:13.649Z,7.44
2023-02-26T07:25:42.148Z,7.44
2023-02-26T07:28:11.987Z,7.44
2023-02-26T07:30:42.369Z,7.45
2023-02-26T07:33:13.304Z,7.47
2023-02-26T07:35:42.760Z,7.47
2023-02-26T07:38:11.196Z,7.49
2023-02-26T07:40:39.648Z,7.51
2023-02-26T07:43:08.311Z,7.53
2023-02-26T07:45:38.087Z,7.55
2023-02-26T07:48:06.632Z,7.57
2023-02-26T07:50:35.099Z,7.60
2023-02-26T07:53:03.573Z,7.65
2023-02-26T07:55:32.073Z,7.72
2023-02-26T07:58:00.468Z,7.79
2023-02-26T08:00:28.967Z,7.84
2023-02-26T08:02:58.780Z,7.87
2023-02-26T08:05:29.852Z,7.90
2023-02-26T08:07:58.733Z,7.95
2023-02-26T08:10:27.127Z,7.98
2023-02-26T08:12:55.688Z,8.05
2023-02-26T08:15:24.570Z,8.09
2023-02-26T08:17:53.910Z,8.14
2023-02-26T08:20:23.882Z,8.18
2023-02-26T08:22:52.401Z,8.22
2023-02-26T08:25:20.979Z,8.26
2023-02-26T08:27:49.472Z,8.31
2023-02-26T08:30:18.105Z,8.36
2023-02-26T08:32:46.650Z,8.46
2023-02-26T08:35:15.320Z,8.52
2023-02-26T08:37:45.137Z,8.54
2023-02-26T08:40:15.377Z,8.57
2023-02-26T08:42:43.915Z,8.65
2023-02-26T08:45:13.212Z,8.76
2023-02-26T08:47:55.827Z,8.86
2023-02-26T08:50:25.592Z,8.94
2023-02-26T08:52:55.510Z,9.00
2023-02-26T08:55:24.504Z,9.04
2023-02-26T08:57:52.924Z,9.10
2023-02-26T09:00:22.415Z,9.14
2023-02-26T09:02:51.315Z,9.17
2023-02-26T09:05:20.674Z,9.16
2023-02-26T09:07:49.300Z,9.14
2023-02-26T09:10:19.679Z,9.16
2023-02-26T09:12:48.166Z,9.25
2023-02-26T09:15:16.838Z,9.31
2023-02-26T09:17:45.462Z,9.38
2023-02-26T09:20:15.469Z,9.42
2023-02-26T09:22:43.909Z,9.48
2023-02-26T09:25:13.232Z,9.51
2023-02-26T09:27:43.196Z,9.50
2023-02-26T09:30:13.372Z,9.51
2023-02-26T09:32:42.273Z,9.57
2023-02-26T09:35:11.661Z,9.66
2023-02-26T09:37:40.532Z,9.72
2023-02-26T09:40:22.448Z,9.77
2023-02-26T09:43:19.374Z,9.78
2023-02-26T09:45:50.525Z,9.78
2023-02-26T09:48:22.447Z,9.78
2023-02-26T09:50:54.229Z,9.85
2023-02-26T09:53:28.067Z,9.83
2023-02-26T09:56:02.133Z,9.85
2023-02-26T09:58:35.526Z,9.93
2023-02-26T10:01:11.883Z,10.04
2023-02-26T10:03:59.583Z,10.16
2023-02-26T10:06:31.595Z,10.30
2023-02-26T10:09:27.578Z,10.48
2023-02-26T10:12:03.675Z,10.66
2023-02-26T10:14:38.687Z,10.76
2023-02-26T10:17:18.191Z,10.85
2023-02-26T10:19:51.711Z,10.93
2023-02-26T10:22:29.610Z,10.93
2023-02-26T10:25:04.323Z,10.91
2023-02-26T10:27:46.784Z,10.89
2023-02-26T10:30:30.869Z,10.91
2023-02-26T10:33:13.550Z,11.01
2023-02-26T10:35:52.164Z,11.17
2023-02-26T10:38:26.774Z,11.33
2023-02-26T10:41:02.226Z,11.35
2023-02-26T10:43:36.689Z,11.36
2023-02-26T10:46:25.834Z,11.42
2023-02-26T10:49:20.404Z,11.55
2023-02-26T10:51:49.283Z,11.63
2023-02-26T10:54:22.994Z,11.66
2023-02-26T10:56:51.794Z,11.63
2023-02-26T10:59:20.825Z,11.52
2023-02-26T11:01:52.846Z,11.36
2023-02-26T11:04:26.213Z,11.07
2023-02-26T11:06:59.744Z,10.70
2023-02-26T11:09:33.169Z,10.34
2023-02-26T11:12:08.526Z,10.11
2023-02-26T11:14:38.216Z,10.02
2023-02-26T11:17:14.329Z,10.02
2023-02-26T11:19:49.891Z,10.09
2023-02-26T11:22:20.145Z,10.15
2023-02-26T11:24:51.615Z,10.17
2023-02-26T11:27:24.242Z,10.19
2023-02-26T11:29:58.292Z,10.14
2023-02-26T11:32:36.889Z,10.12
2023-02-26T11:35:10.539Z,10.15
2023-02-26T11:37:42.738Z,10.21
2023-02-26T11:40:21.021Z,10.21
2023-02-26T11:42:55.128Z,10.21
2023-02-26T11:45:24.439Z,10.23
2023-02-26T11:48:02.410Z,10.27
2023-02-26T11:50:35.316Z,10.36
2023-02-26T11:53:17.309Z,10.46
2023-02-26T11:55:52.726Z,10.63
2023-02-26T11:58:24.598Z,11.17
2023-02-26T12:00:59.150Z,11.62
2023-02-26T12:03:36.255Z,11.88
2023-02-26T12:06:05.964Z,11.93
2023-02-26T12:08:42.686Z,11.84
2023-02-26T12:12:01.479Z,11.50
2023-02-26T12:14:59.101Z,11.07
2023-02-26T12:17:40.849Z,10.77
2023-02-26T12:20:23.003Z,10.58
2023-02-26T12:23:01.601Z,10.52
2023-02-26T12:25:52.107Z,10.53
2023-02-26T12:29:03.070Z,10.67
2023-02-26T12:31:59.161Z,10.79
2023-02-26T12:35:30.510Z,10.92
2023-02-26T12:38:17.282Z,11.04
2023-02-26T12:41:16.615Z,11.18
2023-02-26T12:43:50.453Z,11.26
2023-02-26T12:46:37.636Z,11.20
2023-02-26T12:49:29.745Z,11.09
2023-02-26T12:52:27.260Z,10.91
2023-02-26T12:55:24.530Z,10.74
2023-02-26T12:58:26.233Z,10.67
2023-02-26T13:01:19.954Z,10.56
2023-02-26T13:04:43.253Z,10.48
2023-02-26T13:07:49.988Z,10.47
2023-02-26T13:10:32.092Z,10.50
2023-02-26T13:13:53.028Z,10.53
2023-02-26T13:16:41.260Z,10.56
2023-02-26T13:19:32.565Z,10.58
2023-02-26T13:22:08.452Z,10.60
2023-02-26T13:24:45.848Z,10.62
2023-02-26T13:27:19.232Z,10.63
2023-02-26T13:30:08.455Z,10.63
2023-02-26T13:32:42.659Z,10.67
2023-02-26T13:35:26.522Z,10.71
2023-02-26T13:37:58.568Z,10.73
2023-02-26T13:41:02.681Z,10.70
2023-02-26T13:43:55.023Z,10.70
2023-02-26T13:46:41.242Z,10.66
2023-02-26T13:49:20.142Z,10.61
2023-02-26T13:51:54.975Z,10.55
2023-02-26T13:54:46.398Z,10.47
2023-02-26T13:57:39.470Z,10.40
2023-02-26T14:00:31.388Z,10.35
2023-02-26T14:03:13.410Z,10.37
2023-02-26T14:06:27.799Z,10.40
2023-02-26T14:09:00.161Z,10.46
2023-02-26T14:12:00.524Z,10.51
2023-02-26T14:14:38.649Z,10.63
2023-02-26T14:17:49.494Z,10.69
2023-02-26T14:20:28.595Z,10.78
2023-02-26T14:23:40.121Z,10.84
2023-02-26T14:26:21.536Z,10.85
2023-02-26T14:29:10.414Z,10.80
2023-02-26T14:32:15.139Z,10.74
2023-02-26T14:34:55.488Z,10.71
2023-02-26T14:37:27.953Z,10.66
2023-02-26T14:40:04.385Z,10.58
2023-02-26T14:42:40.410Z,10.50
2023-02-26T14:45:25.120Z,10.39
2023-02-26T14:47:57.342Z,10.29
2023-02-26T14:50:36.145Z,10.18
2023-02-26T14:53:46.044Z,10.01
2023-02-26T14:56:25.943Z,9.89
2023-02-26T14:59:23.380Z,9.80
2023-02-26T15:02:03.913Z,9.75
2023-02-26T15:05:24.096Z,9.66
2023-02-26T15:08:21.660Z,9.62
2023-02-26T15:11:22.649Z,9.56
2023-02-26T15:14:24.711Z,9.48
2023-02-26T15:17:09.457Z,9.42
2023-02-26T15:19:58.111Z,9.33
2023-02-26T15:22:43.112Z,9.29
2023-02-26T15:25:26.479Z,9.25
2023-02-26T15:27:57.504Z,9.24
2023-02-26T15:30:26.949Z,9.23
2023-02-26T15:33:01.616Z,9.23
2023-02-26T15:35:35.467Z,9.24
2023-02-26T15:38:05.612Z,9.22
2023-02-26T15:40:39.114Z,9.21
2023-02-26T15:43:11.540Z,9.20
2023-02-26T15:45:44.541Z,9.20
2023-02-26T15:48:19.639Z,9.19
2023-02-26T15:51:00.167Z,9.17
2023-02-26T15:53:36.312Z,9.15
2023-02-26T15:56:11.045Z,9.12
2023-02-26T15:58:45.552Z,9.09
2023-02-26T16:01:20.425Z,9.07
2023-02-26T16:03:55.473Z,9.06
2023-02-26T16:06:30.909Z,9.05
2023-02-26T16:09:02.912Z,9.03
2023-02-26T16:11:39.105Z,8.99
2023-02-26T16:14:10.296Z,8.97
2023-02-26T16:16:47.308Z,8.94
2023-02-26T16:19:18.964Z,8.91
2023-02-26T16:21:49.929Z,8.84
2023-02-26T16:24:24.539Z,8.79
2023-02-26T16:26:59.684Z,8.73
2023-02-26T16:29:32.904Z,8.67
2023-02-26T16:32:09.655Z,8.63
2023-02-26T16:34:44.905Z,8.58
2023-02-26T16:37:28.621Z,8.54
2023-02-26T16:40:07.615Z,8.49
2023-02-26T16:42:55.061Z,8.45
2023-02-26T16:45:52.979Z,8.36
2023-02-26T16:48:30.774Z,8.34
2023-02-26T16:51:02.867Z,8.29
2023-02-26T16:53:40.972Z,8.29
2023-02-26T16:56:17.252Z,8.26
2023-02-26T16:58:56.940Z,8.24
2023-02-26T17:01:28.006Z,8.23
2023-02-26T17:04:05.178Z,8.22
2023-02-26T17:06:39.449Z,8.23
2023-02-26T17:09:25.755Z,8.21
2023-02-26T17:12:15.982Z,8.18
2023-02-26T17:14:55.097Z,8.18
2023-02-26T17:17:25.339Z,8.17
2023-02-26T17:19:55.871Z,8.16
2023-02-26T17:22:31.123Z,8.14
2023-02-26T17:25:01.147Z,8.13
2023-02-26T17:27:36.973Z,8.12
2023-02-26T17:30:16.185Z,8.10
2023-02-26T17:32:49.825Z,8.09
2023-02-26T17:35:21.526Z,8.09
2023-02-26T17:37:53.625Z,8.10
2023-02-26T17:40:27.979Z,8.13
2023-02-26T17:43:00.526Z,8.13
2023-02-26T17:45:33.858Z,8.15
2023-02-26T17:48:04.835Z,8.16
2023-02-26T17:50:44.484Z,8.16
2023-02-26T17:53:14.991Z,8.17
2023-02-26T17:55:47.506Z,8.19
2023-02-26T17:58:24.634Z,8.19
2023-02-26T18:00:57.150Z,8.19
2023-02-26T18:03:27.647Z,8.19
2023-02-26T18:05:59.082Z,8.21
2023-02-26T18:08:35.328Z,8.21
2023-02-26T18:11:06.823Z,8.21
2023-02-26T18:13:38.261Z,8.20
2023-02-26T18:16:19.275Z,8.19
2023-02-26T18:18:50.371Z,8.18
2023-02-26T18:21:22.362Z,8.14
2023-02-26T18:23:54.375Z,8.12
2023-02-26T18:26:31.161Z,8.08
2023-02-26T18:29:03.596Z,8.04
2023-02-26T18:31:35.834Z,8.01
2023-02-26T18:34:06.084Z,7.98
2023-02-26T18:36:39.864Z,7.95
2023-02-26T18:39:13.876Z,7.92
2023-02-26T18:41:44.876Z,7.90
2023-02-26T18:44:17.405Z,7.89
2023-02-26T18:46:49.324Z,7.88
2023-02-26T18:49:22.150Z,7.86
2023-02-26T18:51:56.464Z,7.85
2023-02-26T18:54:31.034Z,7.84
2023-02-26T18:57:03.842Z,7.83
2023-02-26T18:59:35.614Z,7.83
2023-02-26T19:02:08.382Z,7.83
2023-02-26T19:04:39.975Z,7.86
2023-02-26T19:07:11.390Z,7.89
2023-02-26T19:09:41.840Z,7.92
2023-02-26T19:12:15.018Z,7.95
2023-02-26T19:14:45.371Z,7.95
2023-02-26T19:17:20.728Z,7.97
2023-02-26T19:19:52.984Z,7.97
2023-02-26T19:22:25.964Z,7.98
2023-02-26T19:24:57.686Z,7.97
2023-02-26T19:27:31.629Z,7.96
2023-02-26T19:30:03.976Z,7.93
2023-02-26T19:32:36.598Z,7.90
2023-02-26T19:35:12.617Z,7.87
2023-02-26T19:37:48.351Z,7.82
2023-02-26T19:40:20.919Z,7.78
2023-02-26T19:42:51.068Z,7.72
2023-02-26T19:45:22.552Z,7.65
2023-02-26T19:47:56.412Z,7.61
2023-02-26T19:50:27.981Z,7.57
2023-02-26T19:52:58.588Z,7.54
2023-02-26T19:55:29.031Z,7.51
2023-02-26T19:57:59.276Z,7.47
2023-02-26T20:00:30.760Z,7.42
2023-02-26T20:03:02.896Z,7.39
2023-02-26T20:05:33.741Z,7.35
2023-02-26T20:08:06.621Z,7.33
2023-02-26T20:10:37.529Z,7.28
2023-02-26T20:13:08.231Z,7.25
2023-02-26T20:15:38.085Z,7.23
2023-02-26T20:18:09.976Z,7.20
2023-02-26T20:20:40.725Z,7.20
2023-02-26T20:23:11.030Z,7.21
2023-02-26T20:25:41.786Z,7.23
2023-02-26T20:28:14.073Z,7.25
2023-02-26T20:30:44.008Z,7.27
2023-02-26T20:33:17.695Z,7.30
2023-02-26T20:35:48.615Z,7.33
2023-02-26T20:38:24.194Z,7.35
2023-02-26T20:40:54.938Z,7.37
2023-02-26T20:43:25.556Z,7.38
2023-02-26T20:45:57.280Z,7.40
2023-02-26T20:48:29.246Z,7.42
2023-02-26T20:51:07.336Z,7.44
2023-02-26T20:53:37.822Z,7.46
2023-02-26T20:56:11.862Z,7.47
2023-02-26T20:58:42.341Z,7.47
2023-02-26T21:01:13.295Z,7.47
2023-02-26T21:03:45.536Z,7.49
2023-02-26T21:06:15.313Z,7.50
2023-02-26T21:08:47.271Z,7.51
2023-02-26T21:11:17.020Z,7.51
2023-02-26T21:13:48.209Z,7.52
2023-02-26T21:16:17.971Z,7.53
2023-02-26T21:18:49.337Z,7.53
2023-02-26T21:21:19.560Z,7.54
2023-02-26T21:23:49.174Z,7.57
2023-02-26T21:26:19.565Z,7.59
2023-02-26T21:28:49.593Z,7.60
2023-02-26T21:31:22.186Z,7.62
2023-02-26T21:33:53.341Z,7.62
2023-02-26T21:36:22.864Z,7.61
2023-02-26T21:38:51.387Z,7.60
2023-02-26T21:41:22.032Z,7.61
2023-02-26T21:43:50.762Z,7.61
2023-02-26T21:46:19.819Z,7.60
2023-02-26T21:48:50.277Z,7.58
2023-02-26T21:51:21.529Z,7.57
2023-02-26T21:53:50.739Z,7.57
2023-02-26T21:56:20.310Z,7.55
2023-02-26T21:58:48.880Z,7.54
2023-02-26T22:01:17.343Z,7.52
2023-02-26T22:03:45.891Z,7.49
2023-02-26T22:06:14.360Z,7.49
2023-02-26T22:08:44.423Z,7.47
2023-02-26T22:11:12.880Z,7.46
2023-02-26T22:13:41.375Z,7.44
2023-02-26T22:16:10.086Z,7.43
2023-02-26T22:18:39.043Z,7.40
2023-02-26T22:21:08.097Z,7.39
2023-02-26T22:23:36.983Z,7.39
2023-02-26T22:26:07.056Z,7.35
2023-02-26T22:28:35.525Z,7.33
2023-02-26T22:31:04.160Z,7.29
2023-02-26T22:33:32.709Z,7.27
2023-02-26T22:36:01.810Z,7.24
2023-02-26T22:38:30.591Z,7.20
2023-02-26T22:40:59.111Z,7.18
2023-02-26T22:43:28.915Z,7.16
2023-02-26T22:45:57.391Z,7.13
2023-02-26T22:48:25.815Z,7.12
2023-02-26T22:50:54.372Z,7.07
2023-02-26T22:53:22.818Z,7.05
2023-02-26T22:55:53.689Z,7.03
2023-02-26T22:58:22.308Z,7.03
2023-02-26T23:00:58.802Z,7.02
2023-02-26T23:03:27.305Z,7.04
2023-02-26T23:05:55.819Z,7.04
2023-02-26T23:08:24.586Z,7.05
2023-02-26T23:10:56.138Z,7.05
2023-02-26T23:13:25.120Z,7.05
2023-02-26T23:15:55.240Z,7.03
2023-02-26T23:18:23.794Z,7.02
2023-02-26T23:20:53.005Z,6.98
2023-02-26T23:23:21.515Z,6.94
2023-02-26T23:25:50.051Z,6.92
2023-02-26T23:28:18.458Z,6.88
2023-02-26T23:30:47.121Z,6.84
2023-02-26T23:33:17.198Z,6.79
2023-02-26T23:35:45.695Z,6.76
2023-02-26T23:38:14.198Z,6.73
2023-02-26T23:40:42.683Z,6.71
2023-02-26T23:43:11.193Z,6.69
2023-02-26T23:45:39.682Z,6.66
2023-02-26T23:48:08.710Z,6.65
2023-02-26T23:50:38.529Z,6.65
2023-02-26T23:53:07.038Z,6.66
2023-02-26T23:55:35.802Z,6.70
2023-02-26T23:58:04.251Z,6.72
